createdAt,value
2023-03-23T16:06:37.855Z,16.09
2023-03-23T16:16:48.709Z,15.92
2023-03-23T16:26:57.794Z,15.80
2023-03-23T16:37:07.172Z,15.69
2023-03-23T16:47:14.574Z,15.50
2023-03-23T16:57:22.315Z,15.24
2023-03-23T17:07:29.714Z,15.03
2023-03-23T17:17:36.510Z,14.83
2023-03-23T17:27:43.959Z,14.62
2023-03-23T17:37:51.753Z,14.41
2023-03-23T17:47:58.922Z,14.25
2023-03-23T17:58:06.459Z,14.07
2023-03-23T18:08:13.841Z,13.92
2023-03-23T18:18:21.159Z,13.76
2023-03-23T18:28:28.342Z,13.66
2023-03-23T18:38:37.538Z,13.63
2023-03-23T18:48:45.408Z,13.61
2023-03-23T18:58:54.498Z,13.55
2023-03-23T19:09:01.642Z,13.49
2023-03-23T19:19:08.672Z,13.41
2023-03-23T19:29:26.717Z,13.38
2023-03-23T19:39:34.618Z,13.35
2023-03-23T19:59:48.825Z,13.41
2023-03-23T20:09:56.092Z,13.52
2023-03-23T20:20:06.360Z,13.59
2023-03-23T20:30:11.762Z,13.58
2023-03-23T20:40:18.860Z,13.51
2023-03-23T20:50:25.273Z,13.39
2023-03-23T21:00:32.337Z,13.27
2023-03-23T21:10:39.586Z,13.22
2023-03-23T21:20:47.343Z,13.26
2023-03-23T21:30:55.336Z,13.35
2023-03-23T21:41:09.746Z,13.40
2023-03-23T21:51:18.520Z,13.39
2023-03-23T22:01:25.889Z,13.35
2023-03-23T22:11:33.721Z,13.24
2023-03-23T22:21:41.174Z,13.25
2023-03-23T22:31:48.568Z,13.24
2023-03-23T22:41:55.808Z,13.23
2023-03-23T22:52:02.805Z,13.27
2023-03-23T23:02:09.955Z,13.35
2023-03-23T23:12:18.466Z,13.38
2023-03-23T23:22:25.585Z,13.33
2023-03-23T23:32:34.160Z,13.23
2023-03-23T23:42:41.567Z,13.11
2023-03-23T23:52:50.363Z,13.03
